Time;durP1;ratioP1;P1;durP2;ratioP2;P2;SDS_P1;SDS_P2;PMS_P1;PMS_P2;Temp;Humidity;BMP_temperature;BMP_pressure;BME280_temperature;BME280_humidity;BME280_pressure;Samples;Min_cycle;Max_cycle;Signal;HPM_P1;HPM_P2
2022/07/31 00:00:55;;;;;;;2.03;1.40;;;;;;;24.56;46.06;101721.81;5066247;28;20084;-60
2022/07/31 00:03:20;;;;;;;1.23;1.10;;;;;;;24.64;46.11;101731.75;5065979;28;20025;-59
2022/07/31 00:05:45;;;;;;;1.65;1.15;;;;;;;24.56;46.12;101720.97;5065781;28;20068;-60
2022/07/31 00:08:11;;;;;;;1.35;1.08;;;;;;;24.58;45.99;101727.03;5065999;28;20058;-60
2022/07/31 00:10:36;;;;;;;2.28;1.30;;;;;;;24.64;46.04;101729.03;5065236;28;20028;-60
2022/07/31 00:13:01;;;;;;;1.58;1.10;;;;;;;24.63;45.97;101730.88;5065887;28;20029;-60
2022/07/31 00:15:27;;;;;;;1.70;1.02;;;;;;;24.64;46.10;101731.75;5065757;28;20025;-60
2022/07/31 00:17:52;;;;;;;0.88;0.80;;;;;;;24.64;46.13;101726.31;5064554;28;20025;-59
2022/07/31 00:20:17;;;;;;;1.30;0.90;;;;;;;24.63;46.14;101732.75;5065496;28;20017;-60
2022/07/31 00:22:44;;;;;;;1.92;1.33;;;;;;;24.63;46.23;101736.31;5065565;28;20377;-59
2022/07/31 00:25:10;;;;;;;1.42;1.00;;;;;;;24.63;46.17;101728.16;5083075;28;20030;-60
2022/07/31 00:27:36;;;;;;;1.50;1.05;;;;;;;24.62;46.18;101722.91;5085551;28;20020;-59
2022/07/31 00:30:03;;;;;;;1.73;0.95;;;;;;;24.62;46.03;101723.75;5085233;28;20466;-59
2022/07/31 00:32:28;;;;;;;1.38;1.08;;;;;;;24.61;45.99;101716.66;5085647;28;20050;-60
2022/07/31 00:34:53;;;;;;;1.83;1.17;;;;;;;24.53;46.17;101703.13;5085282;28;20063;-59
2022/07/31 00:37:18;;;;;;;1.38;0.98;;;;;;;24.61;46.19;101716.66;5085438;28;20024;-59
2022/07/31 00:39:44;;;;;;;1.58;1.25;;;;;;;24.55;46.18;101701.09;5084949;28;20025;-60
2022/07/31 00:42:39;;;;;;;2.25;1.30;;;;;;;24.61;45.98;101703.06;5085228;28;20032;-59
2022/07/31 00:45:05;;;;;;;1.88;1.48;;;;;;;24.58;46.07;101700.69;5080084;28;20048;-60
2022/07/31 00:47:30;;;;;;;1.95;1.20;;;;;;;24.61;46.17;101704.94;5085247;28;20027;-60
2022/07/31 00:49:55;;;;;;;1.90;1.30;;;;;;;24.60;46.13;101698.66;5084772;28;20070;-58
2022/07/31 00:52:20;;;;;;;1.70;1.27;;;;;;;24.61;45.86;101696.78;5085151;28;20107;-60
2022/07/31 00:54:46;;;;;;;1.75;1.17;;;;;;;24.60;46.13;101697.81;5084655;28;20052;-60
2022/07/31 00:57:11;;;;;;;1.58;1.17;;;;;;;24.52;46.29;101684.31;5085188;28;20416;-60
2022/07/31 00:59:36;;;;;;;1.80;1.40;;;;;;;24.60;46.26;101697.81;5084978;28;20020;-59
2022/07/31 01:02:02;;;;;;;1.80;1.17;;;;;;;24.59;46.30;101686.06;5077134;28;20052;-59
2022/07/31 01:04:27;;;;;;;2.60;1.40;;;;;;;24.60;46.42;101692.38;5076643;28;20020;-60
2022/07/31 01:06:53;;;;;;;1.70;1.45;;;;;;;24.60;46.30;101695.94;5073801;28;20059;-60
2022/07/31 01:09:18;;;;;;;2.10;1.30;;;;;;;24.59;46.40;101679.78;5064573;28;20044;-59
2022/07/31 01:11:50;;;;;;;1.48;1.17;;;;;;;24.58;46.25;101689.81;5079001;28;20052;-60
2022/07/31 01:14:16;;;;;;;2.83;1.17;;;;;;;24.60;46.34;101685.06;5083742;28;20029;-59
2022/07/31 01:16:44;;;;;;;1.40;1.10;;;;;;;24.60;46.20;101686.94;5084957;28;20481;-59
2022/07/31 01:19:29;;;;;;;1.33;1.00;;;;;;;24.59;46.14;101679.78;5078160;28;20034;-59
2022/07/31 01:22:33;;;;;;;1.55;1.13;;;;;;;24.59;46.32;101675.19;5064604;28;20032;-60
2022/07/31 01:25:01;;;;;;;1.88;1.00;;;;;;;24.59;46.42;101677.91;5055573;28;20526;-59
2022/07/31 01:27:44;;;;;;;2.22;1.38;;;;;;;24.59;46.10;101671.63;5064836;28;20052;-60
2022/07/31 01:30:10;;;;;;;1.10;0.98;;;;;;;24.56;46.12;101670.16;5063308;28;20025;-60
2022/07/31 01:32:37;;;;;;;3.40;1.20;;;;;;;24.58;45.65;101664.50;5063638;28;20041;-60
2022/07/31 01:35:12;;;;;;;1.42;1.20;;;;;;;24.57;45.94;101666.38;5063396;28;20048;-60
2022/07/31 01:37:43;;;;;;;2.22;1.00;;;;;;;24.54;45.70;101663.19;5082895;28;20119;-59
2022/07/31 01:40:11;;;;;;;1.75;1.33;;;;;;;24.57;45.58;101666.38;5087047;28;20021;-60
2022/07/31 01:42:38;;;;;;;1.80;1.23;;;;;;;24.57;45.48;101669.09;5088728;28;20035;-59
2022/07/31 01:45:05;;;;;;;1.17;1.08;;;;;;;24.53;45.20;101661.50;5087110;28;20040;-60
2022/07/31 01:47:32;;;;;;;2.35;1.20;;;;;;;24.56;44.92;101664.72;5087505;28;20032;-60
2022/07/31 01:49:58;;;;;;;1.23;1.00;;;;;;;24.57;45.02;101657.38;5087043;28;20039;-60
2022/07/31 01:52:26;;;;;;;1.70;1.20;;;;;;;24.57;44.78;101665.53;5088807;28;20031;-59
2022/07/31 01:54:53;;;;;;;1.42;0.80;;;;;;;24.55;44.75;101660.31;5086794;28;20486;-58
2022/07/31 01:57:21;;;;;;;1.63;1.20;;;;;;;24.55;44.68;101652.16;5088778;28;20023;-59
2022/07/31 01:59:47;;;;;;;1.50;1.10;;;;;;;24.52;44.62;101652.53;5087027;28;20020;-60
2022/07/31 02:02:13;;;;;;;2.30;1.50;;;;;;;24.53;44.53;101651.47;5088357;28;20085;-60
2022/07/31 02:04:39;;;;;;;2.25;1.30;;;;;;;24.56;44.68;101653.00;5087006;28;20111;-60
2022/07/31 02:07:04;;;;;;;1.45;1.23;;;;;;;24.55;44.46;101656.72;5086906;28;20024;-59
2022/07/31 02:09:32;;;;;;;1.30;1.00;;;;;;;24.53;44.57;101656.06;5088159;28;20032;-60
2022/07/31 02:11:58;;;;;;;2.25;1.33;;;;;;;24.55;44.51;101648.56;5067347;28;20032;-59
2022/07/31 02:14:23;;;;;;;1.52;1.00;;;;;;;24.55;44.45;101656.72;5066894;28;20071;-60
2022/07/31 02:16:49;;;;;;;1.42;1.20;;;;;;;24.54;44.40;101664.03;5066664;28;20113;-60
2022/07/31 02:19:14;;;;;;;2.05;1.10;;;;;;;24.55;44.63;101659.44;5066696;28;20036;-59
2022/07/31 02:21:40;;;;;;;1.92;1.42;;;;;;;24.54;44.42;101664.03;5066773;28;20043;-59
2022/07/31 02:24:06;;;;;;;1.70;1.05;;;;;;;24.54;44.43;101668.63;5066672;28;20081;-60
2022/07/31 02:26:33;;;;;;;2.03;1.33;;;;;;;24.54;44.52;101665.91;5066086;28;20085;-59
2022/07/31 02:28:59;;;;;;;2.80;1.20;;;;;;;24.52;44.44;101666.13;5066470;28;20462;-60
2022/07/31 02:31:24;;;;;;;1.80;1.20;;;;;;;24.53;44.52;101666.94;5067786;28;20029;-60
2022/07/31 02:33:50;;;;;;;1.80;1.40;;;;;;;24.54;44.67;101665.91;5067747;28;20102;-60
2022/07/31 02:36:19;;;;;;;1.40;1.10;;;;;;;24.50;44.48;101665.44;5066453;28;20123;-60
2022/07/31 02:38:44;;;;;;;;;;;;;;;24.51;44.41;101661.72;5066882;28;20029;-61
2022/07/31 02:41:10;;;;;;;1.58;1.17;;;;;;;24.52;44.46;101657.13;5066109;28;20004;-61
2022/07/31 02:43:36;;;;;;;1.73;1.00;;;;;;;24.51;44.57;101655.41;5066022;28;20056;-60
2022/07/31 02:46:02;;;;;;;1.95;1.40;;;;;;;24.50;44.50;101643.69;5066575;28;20021;-59
2022/07/31 02:48:28;;;;;;;1.17;1.08;;;;;;;24.48;44.60;101639.50;5067590;28;20467;-60
2022/07/31 02:50:53;;;;;;;1.45;1.10;;;;;;;24.46;44.67;101625.22;5067042;28;20036;-60
2022/07/31 02:53:19;;;;;;;1.67;1.33;;;;;;;24.49;44.59;101627.59;5067448;28;20032;-60
2022/07/31 02:55:45;;;;;;;1.45;1.00;;;;;;;24.50;44.69;101623.81;5065980;28;20097;-60
2022/07/31 02:58:10;;;;;;;1.90;1.27;;;;;;;24.48;44.70;101618.59;5066149;28;20513;-60
2022/07/31 03:00:36;;;;;;;1.45;1.35;;;;;;;24.49;44.54;101622.97;5066796;28;20021;-59
2022/07/31 03:03:01;;;;;;;1.95;1.50;;;;;;;24.46;44.91;101611.63;5067152;28;20554;-59
2022/07/31 03:05:27;;;;;;;1.80;1.48;;;;;;;24.48;44.72;101618.59;5067085;28;20024;-59
2022/07/31 03:07:52;;;;;;;1.38;1.20;;;;;;;24.48;44.74;101618.59;5066937;28;20036;-58
2022/07/31 03:10:17;;;;;;;1.17;0.85;;;;;;;24.42;44.56;101608.44;5071400;28;20035;-59
2022/07/31 03:12:45;;;;;;;2.13;1.33;;;;;;;24.47;44.72;101619.63;5087170;28;20047;-59
2022/07/31 03:15:13;;;;;;;2.05;1.45;;;;;;;24.48;44.78;101617.75;5085889;28;20039;-59
2022/07/31 03:17:39;;;;;;;1.90;1.37;;;;;;;24.46;44.84;101619.78;5085717;28;20017;-60
2022/07/31 03:20:06;;;;;;;1.67;1.20;;;;;;;24.45;44.76;101610.81;5085523;28;20265;-59
2022/07/31 03:22:32;;;;;;;2.38;1.58;;;;;;;24.46;44.96;101615.19;5085708;28;20028;-59
2022/07/31 03:24:58;;;;;;;2.42;1.10;;;;;;;24.46;44.81;101600.75;5086184;28;20056;-60
2022/07/31 03:27:24;;;;;;;1.40;1.27;;;;;;;24.45;44.93;101597.22;5086804;28;20024;-60
2022/07/31 03:29:49;;;;;;;1.90;1.38;;;;;;;24.46;44.72;101600.75;5086448;28;20047;-61
2022/07/31 03:32:15;;;;;;;3.38;1.30;;;;;;;24.45;44.78;101594.50;5086668;28;20020;-60
2022/07/31 03:34:40;;;;;;;4.47;1.75;;;;;;;24.44;44.82;101593.66;5086538;28;20029;-60
2022/07/31 03:37:05;;;;;;;1.40;1.20;;;;;;;24.44;44.79;101587.38;5086773;28;20052;-60
2022/07/31 03:39:30;;;;;;;2.25;1.33;;;;;;;24.44;44.93;101581.94;5086391;28;20020;-56
2022/07/31 03:41:56;;;;;;;1.63;1.30;;;;;;;24.43;44.93;101589.25;5085828;28;20024;-59
2022/07/31 03:44:21;;;;;;;2.17;1.58;;;;;;;24.43;44.74;101591.13;5086369;28;20059;-59
2022/07/31 03:46:47;;;;;;;1.67;1.40;;;;;;;24.41;44.83;101594.03;5085069;28;20024;-60
2022/07/31 03:49:12;;;;;;;1.80;1.20;;;;;;;24.44;44.99;101587.38;5086077;28;20024;-59
2022/07/31 03:51:38;;;;;;;1.88;1.50;;;;;;;24.42;44.99;101581.28;5084855;28;20465;-59
2022/07/31 03:54:03;;;;;;;2.10;1.40;;;;;;;24.43;44.83;101583.81;5086270;28;20029;-59
2022/07/31 03:56:28;;;;;;;2.42;1.33;;;;;;;24.42;44.87;101576.69;5085916;28;20664;-59
2022/07/31 03:58:54;;;;;;;2.20;1.40;;;;;;;24.43;44.88;101581.09;5084869;28;20031;-60
2022/07/31 04:01:20;;;;;;;2.53;1.20;;;;;;;24.43;44.89;101582.97;5085466;28;20024;-60
2022/07/31 04:03:45;;;;;;;1.40;1.30;;;;;;;24.43;44.83;101591.13;5084793;28;20032;-60
2022/07/31 04:06:10;;;;;;;1.33;1.20;;;;;;;24.42;44.98;101586.69;5085887;28;20054;-60
2022/07/31 04:08:35;;;;;;;1.80;1.30;;;;;;;24.38;45.16;101582.69;5085754;28;20031;-60
2022/07/31 04:11:01;;;;;;;1.85;1.65;;;;;;;24.36;44.90;101579.28;5074078;28;20029;-59
2022/07/31 04:13:27;;;;;;;1.45;1.35;;;;;;;24.41;45.13;101591.31;5065712;28;20033;-59
2022/07/31 04:15:52;;;;;;;1.73;1.38;;;;;;;24.40;44.93;101580.63;5065703;28;20078;-59
2022/07/31 04:18:18;;;;;;;2.00;1.30;;;;;;;24.41;45.19;101575.00;5064595;28;20056;-59
2022/07/31 04:20:43;;;;;;;1.60;1.40;;;;;;;24.40;45.20;101575.19;5065272;28;20025;-60
2022/07/31 04:23:08;;;;;;;1.95;1.35;;;;;;;24.39;45.15;101576.22;5065422;28;20025;-60
2022/07/31 04:25:33;;;;;;;2.40;1.65;;;;;;;24.39;45.21;101579.78;5065297;28;20056;-59
2022/07/31 04:28:00;;;;;;;2.08;1.27;;;;;;;24.39;45.24;101570.78;5064274;28;20025;-59
2022/07/31 04:30:25;;;;;;;2.03;1.52;;;;;;;24.37;45.20;101573.69;5065213;28;20048;-60
2022/07/31 04:32:50;;;;;;;1.48;1.15;;;;;;;24.39;45.20;101570.78;5065795;28;20037;-60
2022/07/31 04:35:16;;;;;;;2.40;1.50;;;;;;;24.37;45.29;101570.09;5064545;28;20537;-59
2022/07/31 04:37:41;;;;;;;1.60;1.20;;;;;;;24.38;45.43;101577.25;5065674;28;20032;-60
2022/07/31 04:40:07;;;;;;;1.98;1.30;;;;;;;24.37;45.34;101564.66;5064892;28;20029;-60
2022/07/31 04:42:33;;;;;;;3.75;1.40;;;;;;;24.37;45.19;101573.69;5065059;28;20033;-60
2022/07/31 04:44:58;;;;;;;2.47;1.52;;;;;;;24.36;45.38;101571.97;5064887;28;20045;-60
2022/07/31 04:47:23;;;;;;;1.98;1.58;;;;;;;24.36;45.61;101571.13;5065303;28;20048;-59
2022/07/31 04:49:48;;;;;;;2.28;1.40;;;;;;;24.35;45.62;101575.72;5064685;28;20029;-60
2022/07/31 04:52:13;;;;;;;1.88;1.42;;;;;;;24.36;45.68;101579.28;5064916;28;20443;-59
2022/07/31 04:54:39;;;;;;;2.28;1.60;;;;;;;24.35;45.47;101575.72;5064876;28;20024;-61
2022/07/31 04:57:04;;;;;;;1.67;1.45;;;;;;;24.36;45.64;101576.56;5064857;28;20032;-60
2022/07/31 04:59:29;;;;;;;2.45;1.48;;;;;;;24.35;45.44;101570.28;5064873;28;20029;-60
2022/07/31 05:01:55;;;;;;;1.55;1.20;;;;;;;24.35;45.46;101575.72;5064878;28;20032;-60
2022/07/31 05:04:20;;;;;;;2.20;1.55;;;;;;;24.31;45.19;101563.56;5064376;28;20024;-60
2022/07/31 05:06:47;;;;;;;5.10;1.90;;;;;;;24.36;45.44;101560.25;5055663;28;20037;-59
2022/07/31 05:09:15;;;;;;;1.95;1.75;;;;;;;24.33;45.55;101550.59;5044541;28;20036;-59
2022/07/31 05:11:40;;;;;;;2.53;1.52;;;;;;;24.36;45.52;101560.25;5075747;28;20043;-59
2022/07/31 05:14:07;;;;;;;2.05;1.40;;;;;;;24.36;45.38;101566.53;5084766;28;20039;-59
2022/07/31 05:16:33;;;;;;;2.28;1.45;;;;;;;24.36;45.38;101565.69;5084556;28;20051;-60
2022/07/31 05:18:58;;;;;;;1.92;1.30;;;;;;;24.35;45.54;101554.00;5084492;28;20021;-60
2022/07/31 05:21:29;;;;;;;1.55;1.20;;;;;;;24.34;45.53;101556.88;5084409;28;20024;-60
2022/07/31 05:23:54;;;;;;;1.70;1.30;;;;;;;24.36;45.50;101560.25;5084805;28;20028;-60
2022/07/31 05:26:20;;;;;;;2.80;1.48;;;;;;;24.34;45.53;101557.75;5084131;28;20082;-59
2022/07/31 05:28:48;;;;;;;2.63;1.40;;;;;;;24.35;45.52;101564.84;5084799;28;20036;-59
2022/07/31 05:31:13;;;;;;;2.10;1.42;;;;;;;24.35;45.52;101564.03;5084217;28;20035;-60
2022/07/31 05:33:39;;;;;;;1.48;1.10;;;;;;;24.33;45.33;101556.03;5084476;28;20036;-60
2022/07/31 05:36:04;;;;;;;1.48;1.00;;;;;;;24.35;45.35;101562.13;5084582;28;20033;-60
2022/07/31 05:38:30;;;;;;;2.30;1.50;;;;;;;24.36;45.58;101566.53;5084529;28;20020;-60
2022/07/31 05:40:55;;;;;;;2.35;1.30;;;;;;;24.32;45.29;101553.50;5084010;28;20033;-59
2022/07/31 05:43:21;;;;;;;1.73;1.50;;;;;;;24.36;45.50;101565.69;5084211;28;20082;-59
2022/07/31 05:45:46;;;;;;;1.92;1.40;;;;;;;24.35;45.56;101574.88;5084344;28;20039;-59
2022/07/31 05:48:13;;;;;;;3.00;1.83;;;;;;;24.37;45.49;101580.97;5084584;28;20020;-60
2022/07/31 05:50:42;;;;;;;1.52;1.30;;;;;;;24.37;45.61;101578.25;5084099;28;20051;-60
2022/07/31 05:53:10;;;;;;;2.60;1.30;;;;;;;24.34;45.56;101563.19;5084426;28;20080;-59
2022/07/31 05:55:36;;;;;;;1.85;1.42;;;;;;;24.36;45.75;101566.53;5084041;28;20028;-60
2022/07/31 05:58:01;;;;;;;2.38;1.73;;;;;;;24.37;45.76;101570.97;5084488;28;20597;-59
2022/07/31 06:00:27;;;;;;;3.03;1.48;;;;;;;24.37;45.75;101570.97;5084158;28;20025;-59
2022/07/31 06:02:52;;;;;;;2.70;1.70;;;;;;;24.37;45.63;101573.69;5084342;28;20047;-59
2022/07/31 06:05:18;;;;;;;1.85;1.33;;;;;;;24.35;45.58;101562.13;5084089;28;20078;-59
2022/07/31 06:07:45;;;;;;;1.70;1.38;;;;;;;24.37;45.81;101565.53;5084171;28;20108;-60
2022/07/31 06:10:10;;;;;;;1.95;1.42;;;;;;;24.38;45.68;101567.25;5079515;28;20017;-60
2022/07/31 06:12:35;;;;;;;1.92;1.63;;;;;;;24.38;45.86;101561.81;5063642;28;20032;-60
2022/07/31 06:15:01;;;;;;;1.92;1.75;;;;;;;24.39;45.77;101568.91;5064034;28;20051;-60
2022/07/31 06:17:26;;;;;;;2.95;1.60;;;;;;;24.33;45.43;101566.91;5064152;28;20021;-60
2022/07/31 06:19:51;;;;;;;2.15;1.50;;;;;;;24.39;45.58;101573.50;5063641;28;20025;-60
2022/07/31 06:22:16;;;;;;;2.30;1.40;;;;;;;24.38;45.87;101569.09;5064052;28;20025;-59
2022/07/31 06:24:42;;;;;;;2.28;1.55;;;;;;;24.37;45.81;101573.69;5067658;28;20028;-60
2022/07/31 06:27:07;;;;;;;2.60;1.80;;;;;;;24.37;45.74;101567.38;5067328;28;20025;-60
2022/07/31 06:29:32;;;;;;;2.05;1.30;;;;;;;24.36;46.07;101569.25;5067483;28;20048;-59
2022/07/31 06:31:57;;;;;;;2.45;1.52;;;;;;;24.36;46.04;101569.25;5067367;28;20021;-60
2022/07/31 06:34:23;;;;;;;3.13;1.70;;;;;;;24.36;46.00;101563.81;5067634;28;20488;-61
2022/07/31 06:36:48;;;;;;;2.17;1.63;;;;;;;24.24;46.14;101542.75;5067367;28;20029;-60
2022/07/31 06:39:15;;;;;;;2.30;1.45;;;;;;;24.35;46.11;101559.41;5067349;28;20060;-59
2022/07/31 06:41:43;;;;;;;1.70;1.60;;;;;;;24.35;46.14;101562.13;5066408;28;20017;-61
2022/07/31 06:44:12;;;;;;;3.33;1.75;;;;;;;24.30;46.49;101548.28;5067274;28;20056;-59
2022/07/31 06:46:38;;;;;;;2.00;1.50;;;;;;;24.37;46.64;101557.38;5067388;28;20021;-59
2022/07/31 06:49:04;;;;;;;2.63;1.70;;;;;;;24.37;46.62;101559.22;5066031;28;20029;-60
2022/07/31 06:51:29;;;;;;;3.25;1.98;;;;;;;24.32;46.82;101551.63;5067283;28;20039;-60
2022/07/31 06:53:54;;;;;;;4.53;1.90;;;;;;;24.37;46.42;101557.38;5066844;28;20035;-60
2022/07/31 06:56:20;;;;;;;2.10;1.50;;;;;;;24.28;46.45;101542.19;5066755;28;20024;-60
2022/07/31 06:58:45;;;;;;;2.42;1.55;;;;;;;24.38;46.57;101559.09;5067190;28;20037;-60
2022/07/31 07:01:11;;;;;;;2.85;1.80;;;;;;;24.39;46.58;101554.50;5066700;28;20379;-60
2022/07/31 07:03:36;;;;;;;1.52;1.30;;;;;;;24.38;46.89;101550.94;5067077;28;20017;-60
2022/07/31 07:06:02;;;;;;;1.95;1.50;;;;;;;24.37;46.67;101551.94;5065623;28;20111;-60
2022/07/31 07:08:27;;;;;;;2.13;1.63;;;;;;;24.30;47.08;101541.97;5067012;28;20024;-60
2022/07/31 07:10:53;;;;;;;1.88;1.58;;;;;;;24.39;47.28;101551.78;5075657;28;20088;-61
2022/07/31 07:13:18;;;;;;;2.53;1.80;;;;;;;24.32;47.30;101542.66;5086552;28;20024;-59
2022/07/31 07:15:43;;;;;;;1.85;1.30;;;;;;;24.38;47.26;101545.50;5086806;28;20024;-60
2022/07/31 07:18:08;;;;;;;2.22;1.85;;;;;;;24.39;47.32;101547.19;5087047;28;20020;-60
2022/07/31 07:20:33;;;;;;;3.10;1.50;;;;;;;24.23;47.15;101520.16;5086564;28;20038;-59
2022/07/31 07:22:59;;;;;;;2.47;1.63;;;;;;;24.39;47.15;101543.63;5086942;28;20050;-59
2022/07/31 07:25:24;;;;;;;2.80;1.70;;;;;;;24.39;46.95;101543.63;5086342;28;20432;-60
2022/07/31 07:27:49;;;;;;;1.77;1.60;;;;;;;24.38;47.14;101534.63;5086703;28;20016;-60
2022/07/31 07:30:14;;;;;;;3.08;1.65;;;;;;;24.38;46.95;101534.63;5086378;28;20024;-60
2022/07/31 07:32:40;;;;;;;3.10;1.70;;;;;;;24.33;47.12;101526.13;5086348;28;20037;-60
2022/07/31 07:35:08;;;;;;;3.35;1.90;;;;;;;24.38;47.22;101534.63;5085412;28;20053;-60
2022/07/31 07:37:33;;;;;;;2.90;1.87;;;;;;;24.36;47.19;101533.91;5086838;28;20025;-59
2022/07/31 07:39:58;;;;;;;2.53;1.67;;;;;;;24.36;47.15;101525.78;5085838;28;20020;-60
2022/07/31 07:42:23;;;;;;;1.75;1.52;;;;;;;24.39;47.12;101536.31;5085654;28;20059;-60
2022/07/31 07:44:48;;;;;;;2.08;1.70;;;;;;;24.39;47.17;101539.03;5085934;28;20044;-60
2022/07/31 07:47:14;;;;;;;3.63;2.00;;;;;;;24.36;47.26;101531.22;5086245;28;20033;-59
2022/07/31 07:49:39;;;;;;;2.45;1.73;;;;;;;24.39;47.19;101532.75;5085796;28;20175;-60
2022/07/31 07:52:04;;;;;;;2.33;1.67;;;;;;;24.40;47.29;101537.13;5086105;28;20040;-59
2022/07/31 07:54:30;;;;;;;2.78;1.75;;;;;;;24.39;47.48;101533.59;5085996;28;20032;-60
2022/07/31 07:56:55;;;;;;;2.63;1.98;;;;;;;24.40;47.54;101534.41;5085607;28;20025;-60
2022/07/31 07:59:21;;;;;;;2.38;1.80;;;;;;;24.41;47.76;101538.81;5085912;28;20021;-60
